sensor_id;sensor_type;location;lat;lon;timestamp;P1;durP1;ratioP1;P2;durP2;ratioP2
59856;SDS011;45733;52.668;6.860;2024-02-21T00:02:10;15.73;;;14.88;;
59856;SDS011;45733;52.668;6.860;2024-02-21T00:04:36;15.25;;;14.40;;
59856;SDS011;45733;52.668;6.860;2024-02-21T00:07:03;14.50;;;13.68;;
59856;SDS011;45733;52.668;6.860;2024-02-21T00:09:29;15.25;;;14.40;;
59856;SDS011;45733;52.668;6.860;2024-02-21T00:11:55;15.15;;;14.30;;
59856;SDS011;45733;52.668;6.860;2024-02-21T00:14:21;15.85;;;14.98;;
59856;SDS011;45733;52.668;6.860;2024-02-21T00:16:47;15.35;;;14.50;;
59856;SDS011;45733;52.668;6.860;2024-02-21T00:19:12;15.05;;;14.20;;
59856;SDS011;45733;52.668;6.860;2024-02-21T00:21:39;15.63;;;14.77;;
59856;SDS011;45733;52.668;6.860;2024-02-21T00:24:05;16.52;;;15.65;;
59856;SDS011;45733;52.668;6.860;2024-02-21T00:26:31;16.88;;;15.95;;
59856;SDS011;45733;52.668;6.860;2024-02-21T00:28:57;16.15;;;15.27;;
59856;SDS011;45733;52.668;6.860;2024-02-21T00:31:22;16.35;;;15.48;;
59856;SDS011;45733;52.668;6.860;2024-02-21T00:33:48;16.50;;;15.63;;
59856;SDS011;45733;52.668;6.860;2024-02-21T00:36:14;17.15;;;16.23;;
59856;SDS011;45733;52.668;6.860;2024-02-21T00:38:40;16.48;;;15.60;;
59856;SDS011;45733;52.668;6.860;2024-02-21T00:41:06;16.30;;;15.40;;
59856;SDS011;45733;52.668;6.860;2024-02-21T00:43:31;16.65;;;15.75;;
59856;SDS011;45733;52.668;6.860;2024-02-21T00:45:57;16.80;;;15.90;;
59856;SDS011;45733;52.668;6.860;2024-02-21T00:48:23;17.27;;;16.35;;
59856;SDS011;45733;52.668;6.860;2024-02-21T00:50:48;17.27;;;16.35;;
59856;SDS011;45733;52.668;6.860;2024-02-21T00:53:14;17.60;;;16.67;;
59856;SDS011;45733;52.668;6.860;2024-02-21T00:55:40;17.63;;;16.67;;
59856;SDS011;45733;52.668;6.860;2024-02-21T00:58:06;17.13;;;16.20;;
59856;SDS011;45733;52.668;6.860;2024-02-21T01:00:31;17.75;;;16.80;;
59856;SDS011;45733;52.668;6.860;2024-02-21T01:02:57;18.50;;;17.52;;
59856;SDS011;45733;52.668;6.860;2024-02-21T01:05:23;17.02;;;16.13;;
59856;SDS011;45733;52.668;6.860;2024-02-21T01:07:48;17.33;;;16.40;;
59856;SDS011;45733;52.668;6.860;2024-02-21T01:10:14;17.10;;;16.20;;
59856;SDS011;45733;52.668;6.860;2024-02-21T01:12:40;17.02;;;16.13;;
59856;SDS011;45733;52.668;6.860;2024-02-21T01:15:06;17.95;;;17.00;;
59856;SDS011;45733;52.668;6.860;2024-02-21T01:17:32;17.75;;;16.80;;
59856;SDS011;45733;52.668;6.860;2024-02-21T01:19:58;17.52;;;16.60;;
59856;SDS011;45733;52.668;6.860;2024-02-21T01:22:24;16.77;;;15.88;;
59856;SDS011;45733;52.668;6.860;2024-02-21T01:24:49;16.70;;;15.80;;
59856;SDS011;45733;52.668;6.860;2024-02-21T01:27:15;17.20;;;16.27;;
59856;SDS011;45733;52.668;6.860;2024-02-21T01:29:41;16.65;;;15.75;;
59856;SDS011;45733;52.668;6.860;2024-02-21T01:32:07;16.77;;;15.88;;
59856;SDS011;45733;52.668;6.860;2024-02-21T01:34:32;17.38;;;16.45;;
59856;SDS011;45733;52.668;6.860;2024-02-21T01:36:58;16.73;;;15.82;;
59856;SDS011;45733;52.668;6.860;2024-02-21T01:39:24;17.05;;;16.15;;
59856;SDS011;45733;52.668;6.860;2024-02-21T01:41:50;18.08;;;17.13;;
59856;SDS011;45733;52.668;6.860;2024-02-21T01:44:16;16.67;;;15.77;;
59856;SDS011;45733;52.668;6.860;2024-02-21T01:46:41;18.40;;;17.35;;
59856;SDS011;45733;52.668;6.860;2024-02-21T01:49:07;17.60;;;16.65;;
59856;SDS011;45733;52.668;6.860;2024-02-21T01:51:33;16.65;;;15.75;;
59856;SDS011;45733;52.668;6.860;2024-02-21T01:53:59;16.70;;;15.80;;
59856;SDS011;45733;52.668;6.860;2024-02-21T01:56:25;17.00;;;16.08;;
59856;SDS011;45733;52.668;6.860;2024-02-21T01:58:51;16.10;;;15.23;;
59856;SDS011;45733;52.668;6.860;2024-02-21T02:01:17;17.33;;;16.40;;
59856;SDS011;45733;52.668;6.860;2024-02-21T02:03:45;17.90;;;16.95;;
59856;SDS011;45733;52.668;6.860;2024-02-21T02:06:11;16.80;;;15.90;;
59856;SDS011;45733;52.668;6.860;2024-02-21T02:08:38;16.88;;;15.98;;
59856;SDS011;45733;52.668;6.860;2024-02-21T02:11:03;17.17;;;16.27;;
59856;SDS011;45733;52.668;6.860;2024-02-21T02:13:29;16.70;;;15.80;;
59856;SDS011;45733;52.668;6.860;2024-02-21T02:15:55;16.95;;;16.05;;
59856;SDS011;45733;52.668;6.860;2024-02-21T02:18:21;16.27;;;15.40;;
59856;SDS011;45733;52.668;6.860;2024-02-21T02:20:47;17.08;;;16.17;;
59856;SDS011;45733;52.668;6.860;2024-02-21T02:23:25;17.15;;;16.25;;
59856;SDS011;45733;52.668;6.860;2024-02-21T02:25:52;16.55;;;15.65;;
59856;SDS011;45733;52.668;6.860;2024-02-21T02:28:18;16.67;;;15.77;;
59856;SDS011;45733;52.668;6.860;2024-02-21T02:30:44;16.88;;;15.98;;
59856;SDS011;45733;52.668;6.860;2024-02-21T02:33:10;16.10;;;15.23;;
59856;SDS011;45733;52.668;6.860;2024-02-21T02:35:36;16.65;;;15.75;;
59856;SDS011;45733;52.668;6.860;2024-02-21T02:38:02;16.65;;;15.75;;
59856;SDS011;45733;52.668;6.860;2024-02-21T02:40:28;16.83;;;15.93;;
59856;SDS011;45733;52.668;6.860;2024-02-21T02:42:54;16.85;;;15.95;;
59856;SDS011;45733;52.668;6.860;2024-02-21T02:45:21;16.85;;;15.95;;
59856;SDS011;45733;52.668;6.860;2024-02-21T02:47:51;17.13;;;16.23;;
59856;SDS011;45733;52.668;6.860;2024-02-21T02:50:24;16.95;;;16.05;;
59856;SDS011;45733;52.668;6.860;2024-02-21T02:52:50;16.48;;;15.60;;
59856;SDS011;45733;52.668;6.860;2024-02-21T02:55:15;16.45;;;15.57;;
59856;SDS011;45733;52.668;6.860;2024-02-21T02:57:41;16.70;;;15.80;;
59856;SDS011;45733;52.668;6.860;2024-02-21T03:00:08;16.17;;;15.30;;
59856;SDS011;45733;52.668;6.860;2024-02-21T03:02:36;16.58;;;15.68;;
59856;SDS011;45733;52.668;6.860;2024-02-21T03:05:03;16.08;;;15.20;;
59856;SDS011;45733;52.668;6.860;2024-02-21T03:07:43;16.00;;;15.13;;
59856;SDS011;45733;52.668;6.860;2024-02-21T03:10:10;15.65;;;14.80;;
59856;SDS011;45733;52.668;6.860;2024-02-21T03:12:36;15.02;;;14.20;;
59856;SDS011;45733;52.668;6.860;2024-02-21T03:15:02;14.30;;;13.50;;
59856;SDS011;45733;52.668;6.860;2024-02-21T03:17:29;13.70;;;12.93;;
59856;SDS011;45733;52.668;6.860;2024-02-21T03:19:55;15.65;;;14.80;;
59856;SDS011;45733;52.668;6.860;2024-02-21T03:22:21;14.93;;;14.10;;
59856;SDS011;45733;52.668;6.860;2024-02-21T03:24:47;13.88;;;13.10;;
59856;SDS011;45733;52.668;6.860;2024-02-21T03:27:13;13.00;;;12.25;;
59856;SDS011;45733;52.668;6.860;2024-02-21T03:29:39;13.50;;;12.73;;
59856;SDS011;45733;52.668;6.860;2024-02-21T03:32:04;12.75;;;12.02;;
59856;SDS011;45733;52.668;6.860;2024-02-21T03:34:30;13.20;;;12.45;;
59856;SDS011;45733;52.668;6.860;2024-02-21T03:36:56;13.18;;;12.43;;
59856;SDS011;45733;52.668;6.860;2024-02-21T03:39:22;12.75;;;12.02;;
59856;SDS011;45733;52.668;6.860;2024-02-21T03:41:47;12.93;;;12.18;;
59856;SDS011;45733;52.668;6.860;2024-02-21T03:44:13;13.30;;;12.55;;
59856;SDS011;45733;52.668;6.860;2024-02-21T03:46:39;12.77;;;12.02;;
59856;SDS011;45733;52.668;6.860;2024-02-21T03:49:05;12.55;;;11.82;;
59856;SDS011;45733;52.668;6.860;2024-02-21T03:51:31;13.15;;;12.40;;
59856;SDS011;45733;52.668;6.860;2024-02-21T03:53:56;13.43;;;12.68;;
59856;SDS011;45733;52.668;6.860;2024-02-21T03:56:22;14.32;;;13.52;;
59856;SDS011;45733;52.668;6.860;2024-02-21T03:58:48;13.90;;;13.13;;
59856;SDS011;45733;52.668;6.860;2024-02-21T04:01:15;13.15;;;12.40;;
59856;SDS011;45733;52.668;6.860;2024-02-21T04:03:41;13.98;;;13.20;;
59856;SDS011;45733;52.668;6.860;2024-02-21T04:06:09;14.13;;;13.32;;
59856;SDS011;45733;52.668;6.860;2024-02-21T04:08:35;13.75;;;12.98;;
59856;SDS011;45733;52.668;6.860;2024-02-21T04:11:01;14.75;;;13.93;;
59856;SDS011;45733;52.668;6.860;2024-02-21T04:13:27;15.07;;;14.23;;
59856;SDS011;45733;52.668;6.860;2024-02-21T04:15:56;13.70;;;12.93;;
59856;SDS011;45733;52.668;6.860;2024-02-21T04:18:22;13.63;;;12.85;;
59856;SDS011;45733;52.668;6.860;2024-02-21T04:20:51;14.30;;;13.48;;
59856;SDS011;45733;52.668;6.860;2024-02-21T04:23:17;13.93;;;13.15;;
59856;SDS011;45733;52.668;6.860;2024-02-21T04:25:42;13.95;;;13.18;;
59856;SDS011;45733;52.668;6.860;2024-02-21T04:28:08;14.15;;;13.35;;
59856;SDS011;45733;52.668;6.860;2024-02-21T04:30:34;14.60;;;13.77;;
59856;SDS011;45733;52.668;6.860;2024-02-21T04:33:00;13.57;;;12.80;;
59856;SDS011;45733;52.668;6.860;2024-02-21T04:35:25;13.68;;;12.90;;
59856;SDS011;45733;52.668;6.860;2024-02-21T04:37:51;14.52;;;13.70;;
59856;SDS011;45733;52.668;6.860;2024-02-21T04:40:17;14.15;;;13.35;;
59856;SDS011;45733;52.668;6.860;2024-02-21T04:42:43;14.30;;;13.50;;
59856;SDS011;45733;52.668;6.860;2024-02-21T04:45:09;14.00;;;13.23;;
59856;SDS011;45733;52.668;6.860;2024-02-21T04:47:35;14.55;;;13.73;;
59856;SDS011;45733;52.668;6.860;2024-02-21T04:50:01;14.77;;;13.95;;
59856;SDS011;45733;52.668;6.860;2024-02-21T04:52:26;14.20;;;13.40;;
59856;SDS011;45733;52.668;6.860;2024-02-21T04:54:52;14.20;;;13.40;;
59856;SDS011;45733;52.668;6.860;2024-02-21T04:57:18;15.30;;;14.45;;
59856;SDS011;45733;52.668;6.860;2024-02-21T04:59:44;14.25;;;13.45;;
59856;SDS011;45733;52.668;6.860;2024-02-21T05:02:10;14.60;;;13.77;;
59856;SDS011;45733;52.668;6.860;2024-02-21T05:04:36;13.88;;;13.10;;
59856;SDS011;45733;52.668;6.860;2024-02-21T05:07:03;14.77;;;13.95;;
59856;SDS011;45733;52.668;6.860;2024-02-21T05:09:29;14.70;;;13.88;;
59856;SDS011;45733;52.668;6.860;2024-02-21T05:11:55;16.48;;;15.55;;
59856;SDS011;45733;52.668;6.860;2024-02-21T05:14:21;14.95;;;14.13;;
59856;SDS011;45733;52.668;6.860;2024-02-21T05:16:47;14.13;;;13.35;;
59856;SDS011;45733;52.668;6.860;2024-02-21T05:19:12;15.05;;;14.20;;
59856;SDS011;45733;52.668;6.860;2024-02-21T05:21:38;13.77;;;13.00;;
59856;SDS011;45733;52.668;6.860;2024-02-21T05:24:04;14.30;;;13.50;;
59856;SDS011;45733;52.668;6.860;2024-02-21T05:26:30;14.35;;;13.52;;
59856;SDS011;45733;52.668;6.860;2024-02-21T05:28:55;14.38;;;13.55;;
59856;SDS011;45733;52.668;6.860;2024-02-21T05:31:21;15.80;;;14.95;;
59856;SDS011;45733;52.668;6.860;2024-02-21T05:33:47;14.77;;;13.95;;
59856;SDS011;45733;52.668;6.860;2024-02-21T05:36:13;14.93;;;14.10;;
59856;SDS011;45733;52.668;6.860;2024-02-21T05:38:38;14.77;;;13.95;;
59856;SDS011;45733;52.668;6.860;2024-02-21T05:41:04;14.55;;;13.73;;
59856;SDS011;45733;52.668;6.860;2024-02-21T05:43:30;14.90;;;13.90;;
59856;SDS011;45733;52.668;6.860;2024-02-21T05:45:56;15.38;;;14.52;;
59856;SDS011;45733;52.668;6.860;2024-02-21T05:48:23;13.93;;;13.15;;
59856;SDS011;45733;52.668;6.860;2024-02-21T05:50:49;15.10;;;14.25;;
59856;SDS011;45733;52.668;6.860;2024-02-21T05:53:15;15.45;;;14.60;;
59856;SDS011;45733;52.668;6.860;2024-02-21T05:55:41;15.25;;;14.40;;
59856;SDS011;45733;52.668;6.860;2024-02-21T05:58:07;15.40;;;14.55;;
59856;SDS011;45733;52.668;6.860;2024-02-21T06:00:35;15.48;;;14.63;;
59856;SDS011;45733;52.668;6.860;2024-02-21T06:03:01;16.75;;;15.85;;
59856;SDS011;45733;52.668;6.860;2024-02-21T06:05:27;14.52;;;13.70;;
59856;SDS011;45733;52.668;6.860;2024-02-21T06:07:53;15.57;;;14.73;;
59856;SDS011;45733;52.668;6.860;2024-02-21T06:10:19;15.32;;;14.48;;
59856;SDS011;45733;52.668;6.860;2024-02-21T06:12:44;15.48;;;14.63;;
59856;SDS011;45733;52.668;6.860;2024-02-21T06:15:10;14.98;;;14.15;;
59856;SDS011;45733;52.668;6.860;2024-02-21T06:17:36;15.15;;;14.30;;
59856;SDS011;45733;52.668;6.860;2024-02-21T06:20:02;15.18;;;14.32;;
59856;SDS011;45733;52.668;6.860;2024-02-21T06:22:28;14.60;;;13.77;;
59856;SDS011;45733;52.668;6.860;2024-02-21T06:24:55;15.18;;;14.32;;
59856;SDS011;45733;52.668;6.860;2024-02-21T06:27:21;14.65;;;13.82;;
59856;SDS011;45733;52.668;6.860;2024-02-21T06:29:46;14.43;;;13.60;;
59856;SDS011;45733;52.668;6.860;2024-02-21T06:32:12;14.05;;;13.27;;
59856;SDS011;45733;52.668;6.860;2024-02-21T06:34:38;14.63;;;13.80;;
59856;SDS011;45733;52.668;6.860;2024-02-21T06:37:03;14.15;;;13.38;;
59856;SDS011;45733;52.668;6.860;2024-02-21T06:39:29;13.70;;;12.93;;
59856;SDS011;45733;52.668;6.860;2024-02-21T06:41:55;13.40;;;12.63;;
59856;SDS011;45733;52.668;6.860;2024-02-21T06:44:21;14.07;;;13.27;;
59856;SDS011;45733;52.668;6.860;2024-02-21T06:46:47;13.60;;;12.82;;
59856;SDS011;45733;52.668;6.860;2024-02-21T06:49:13;13.85;;;13.07;;
59856;SDS011;45733;52.668;6.860;2024-02-21T06:51:44;13.43;;;12.65;;
59856;SDS011;45733;52.668;6.860;2024-02-21T06:54:12;14.73;;;13.90;;
59856;SDS011;45733;52.668;6.860;2024-02-21T06:56:39;13.85;;;13.07;;
59856;SDS011;45733;52.668;6.860;2024-02-21T06:59:05;12.93;;;12.18;;
59856;SDS011;45733;52.668;6.860;2024-02-21T07:01:31;13.38;;;12.63;;
59856;SDS011;45733;52.668;6.860;2024-02-21T07:03:57;13.63;;;12.85;;
59856;SDS011;45733;52.668;6.860;2024-02-21T07:06:23;13.95;;;13.15;;
59856;SDS011;45733;52.668;6.860;2024-02-21T07:08:49;13.68;;;12.90;;
59856;SDS011;45733;52.668;6.860;2024-02-21T07:11:14;13.30;;;12.55;;
59856;SDS011;45733;52.668;6.860;2024-02-21T07:13:40;12.95;;;12.20;;
59856;SDS011;45733;52.668;6.860;2024-02-21T07:16:06;12.80;;;12.07;;
59856;SDS011;45733;52.668;6.860;2024-02-21T07:18:32;14.07;;;13.27;;
59856;SDS011;45733;52.668;6.860;2024-02-21T07:20:58;13.65;;;12.88;;
59856;SDS011;45733;52.668;6.860;2024-02-21T07:23:24;12.50;;;11.80;;
59856;SDS011;45733;52.668;6.860;2024-02-21T07:25:50;11.93;;;11.23;;
59856;SDS011;45733;52.668;6.860;2024-02-21T07:28:15;12.35;;;11.65;;
59856;SDS011;45733;52.668;6.860;2024-02-21T07:30:42;12.68;;;11.95;;
59856;SDS011;45733;52.668;6.860;2024-02-21T07:33:08;11.35;;;10.68;;
59856;SDS011;45733;52.668;6.860;2024-02-21T07:35:34;12.07;;;11.38;;
59856;SDS011;45733;52.668;6.860;2024-02-21T07:38:03;13.10;;;12.30;;
59856;SDS011;45733;52.668;6.860;2024-02-21T07:40:29;11.77;;;11.07;;
59856;SDS011;45733;52.668;6.860;2024-02-21T07:42:55;12.30;;;11.60;;
59856;SDS011;45733;52.668;6.860;2024-02-21T07:45:22;11.80;;;11.10;;
59856;SDS011;45733;52.668;6.860;2024-02-21T07:47:49;12.25;;;11.55;;
59856;SDS011;45733;52.668;6.860;2024-02-21T07:50:15;13.30;;;12.52;;
59856;SDS011;45733;52.668;6.860;2024-02-21T07:52:42;12.20;;;11.50;;
59856;SDS011;45733;52.668;6.860;2024-02-21T07:55:08;11.50;;;10.80;;
59856;SDS011;45733;52.668;6.860;2024-02-21T07:57:35;12.80;;;12.07;;
59856;SDS011;45733;52.668;6.860;2024-02-21T08:00:01;13.05;;;12.30;;
59856;SDS011;45733;52.668;6.860;2024-02-21T08:02:29;12.20;;;11.50;;
59856;SDS011;45733;52.668;6.860;2024-02-21T08:04:54;11.75;;;11.05;;
59856;SDS011;45733;52.668;6.860;2024-02-21T08:07:20;12.63;;;11.90;;
59856;SDS011;45733;52.668;6.860;2024-02-21T08:09:46;13.05;;;12.30;;
59856;SDS011;45733;52.668;6.860;2024-02-21T08:12:12;12.60;;;11.88;;
59856;SDS011;45733;52.668;6.860;2024-02-21T08:14:37;12.88;;;12.15;;
59856;SDS011;45733;52.668;6.860;2024-02-21T08:17:03;13.70;;;12.90;;
59856;SDS011;45733;52.668;6.860;2024-02-21T08:19:29;12.95;;;12.20;;
59856;SDS011;45733;52.668;6.860;2024-02-21T08:21:55;12.15;;;11.45;;
59856;SDS011;45733;52.668;6.860;2024-02-21T08:24:20;13.35;;;12.55;;
59856;SDS011;45733;52.668;6.860;2024-02-21T08:26:48;11.98;;;11.27;;
59856;SDS011;45733;52.668;6.860;2024-02-21T08:29:13;11.88;;;11.18;;
59856;SDS011;45733;52.668;6.860;2024-02-21T08:31:39;11.60;;;10.90;;
59856;SDS011;45733;52.668;6.860;2024-02-21T08:34:05;12.07;;;11.38;;
59856;SDS011;45733;52.668;6.860;2024-02-21T08:36:30;11.82;;;11.13;;
59856;SDS011;45733;52.668;6.860;2024-02-21T08:38:57;11.88;;;11.18;;
59856;SDS011;45733;52.668;6.860;2024-02-21T08:41:23;12.93;;;12.18;;
59856;SDS011;45733;52.668;6.860;2024-02-21T08:43:52;12.38;;;11.65;;
59856;SDS011;45733;52.668;6.860;2024-02-21T08:46:19;13.07;;;12.32;;
59856;SDS011;45733;52.668;6.860;2024-02-21T08:48:46;14.55;;;13.73;;
59856;SDS011;45733;52.668;6.860;2024-02-21T08:51:15;14.30;;;13.50;;
59856;SDS011;45733;52.668;6.860;2024-02-21T08:53:40;14.77;;;13.95;;
59856;SDS011;45733;52.668;6.860;2024-02-21T08:56:06;15.25;;;14.40;;
59856;SDS011;45733;52.668;6.860;2024-02-21T08:58:33;15.18;;;14.32;;
59856;SDS011;45733;52.668;6.860;2024-02-21T09:01:00;16.45;;;15.57;;
59856;SDS011;45733;52.668;6.860;2024-02-21T09:03:26;16.60;;;15.70;;
59856;SDS011;45733;52.668;6.860;2024-02-21T09:05:52;16.40;;;15.52;;
59856;SDS011;45733;52.668;6.860;2024-02-21T09:08:18;16.45;;;15.57;;
59856;SDS011;45733;52.668;6.860;2024-02-21T09:10:44;16.95;;;16.02;;
59856;SDS011;45733;52.668;6.860;2024-02-21T09:13:09;17.08;;;16.15;;
59856;SDS011;45733;52.668;6.860;2024-02-21T09:15:35;17.65;;;16.70;;
59856;SDS011;45733;52.668;6.860;2024-02-21T09:18:01;17.25;;;16.33;;
59856;SDS011;45733;52.668;6.860;2024-02-21T09:20:28;17.05;;;16.13;;
59856;SDS011;45733;52.668;6.860;2024-02-21T09:22:54;17.33;;;16.40;;
59856;SDS011;45733;52.668;6.860;2024-02-21T09:25:20;18.50;;;17.52;;
59856;SDS011;45733;52.668;6.860;2024-02-21T09:27:45;18.23;;;17.25;;
59856;SDS011;45733;52.668;6.860;2024-02-21T09:30:11;18.75;;;17.77;;
59856;SDS011;45733;52.668;6.860;2024-02-21T09:32:37;18.52;;;17.55;;
59856;SDS011;45733;52.668;6.860;2024-02-21T09:35:03;18.60;;;17.63;;
59856;SDS011;45733;52.668;6.860;2024-02-21T09:37:32;19.05;;;18.05;;
59856;SDS011;45733;52.668;6.860;2024-02-21T09:39:58;18.83;;;17.83;;
59856;SDS011;45733;52.668;6.860;2024-02-21T09:42:27;18.67;;;17.70;;
59856;SDS011;45733;52.668;6.860;2024-02-21T09:45:25;17.95;;;17.00;;
59856;SDS011;45733;52.668;6.860;2024-02-21T09:50:44;18.27;;;17.30;;
59856;SDS011;45733;52.668;6.860;2024-02-21T09:53:12;17.42;;;16.50;;
59856;SDS011;45733;52.668;6.860;2024-02-21T09:55:39;18.42;;;17.45;;
59856;SDS011;45733;52.668;6.860;2024-02-21T09:58:07;18.38;;;17.40;;
59856;SDS011;45733;52.668;6.860;2024-02-21T10:00:33;17.73;;;16.77;;
59856;SDS011;45733;52.668;6.860;2024-02-21T10:03:00;17.45;;;16.52;;
59856;SDS011;45733;52.668;6.860;2024-02-21T10:05:26;18.30;;;17.33;;
59856;SDS011;45733;52.668;6.860;2024-02-21T10:07:52;16.77;;;15.88;;
59856;SDS011;45733;52.668;6.860;2024-02-21T10:10:19;17.77;;;16.85;;
59856;SDS011;45733;52.668;6.860;2024-02-21T10:12:50;16.65;;;15.75;;
59856;SDS011;45733;52.668;6.860;2024-02-21T10:15:20;17.60;;;16.67;;
59856;SDS011;45733;52.668;6.860;2024-02-21T10:17:50;17.80;;;16.85;;
59856;SDS011;45733;52.668;6.860;2024-02-21T10:20:25;17.58;;;16.65;;
59856;SDS011;45733;52.668;6.860;2024-02-21T10:23:02;17.52;;;16.60;;
59856;SDS011;45733;52.668;6.860;2024-02-21T10:25:32;18.45;;;17.48;;
59856;SDS011;45733;52.668;6.860;2024-02-21T10:28:11;17.15;;;16.25;;
59856;SDS011;45733;52.668;6.860;2024-02-21T10:30:37;16.48;;;15.57;;
59856;SDS011;45733;52.668;6.860;2024-02-21T10:33:03;17.60;;;16.67;;
59856;SDS011;45733;52.668;6.860;2024-02-21T10:35:31;16.92;;;16.02;;
59856;SDS011;45733;52.668;6.860;2024-02-21T10:37:58;17.65;;;16.73;;
59856;SDS011;45733;52.668;6.860;2024-02-21T10:40:25;17.33;;;16.40;;
59856;SDS011;45733;52.668;6.860;2024-02-21T10:42:58;15.60;;;14.75;;
59856;SDS011;45733;52.668;6.860;2024-02-21T10:45:28;17.45;;;16.52;;
59856;SDS011;45733;52.668;6.860;2024-02-21T10:47:56;16.48;;;15.57;;
59856;SDS011;45733;52.668;6.860;2024-02-21T10:56:17;13.82;;;13.02;;
59856;SDS011;45733;52.668;6.860;2024-02-21T10:59:01;12.93;;;12.17;;
59856;SDS011;45733;52.668;6.860;2024-02-21T11:01:30;14.70;;;13.90;;
59856;SDS011;45733;52.668;6.860;2024-02-21T11:03:58;13.73;;;12.93;;
59856;SDS011;45733;52.668;6.860;2024-02-21T11:06:26;14.27;;;13.48;;
59856;SDS011;45733;52.668;6.860;2024-02-21T11:11:33;13.77;;;12.98;;
59856;SDS011;45733;52.668;6.860;2024-02-21T11:16:44;12.38;;;11.68;;
59856;SDS011;45733;52.668;6.860;2024-02-21T11:19:20;13.27;;;12.50;;
59856;SDS011;45733;52.668;6.860;2024-02-21T11:21:47;12.98;;;12.23;;
59856;SDS011;45733;52.668;6.860;2024-02-21T11:24:14;13.80;;;13.00;;
59856;SDS011;45733;52.668;6.860;2024-02-21T11:26:50;12.27;;;11.57;;
59856;SDS011;45733;52.668;6.860;2024-02-21T11:29:22;12.13;;;11.43;;
59856;SDS011;45733;52.668;6.860;2024-02-21T11:31:50;13.10;;;12.35;;
59856;SDS011;45733;52.668;6.860;2024-02-21T11:34:19;11.70;;;11.00;;
59856;SDS011;45733;52.668;6.860;2024-02-21T11:36:52;12.07;;;11.38;;
59856;SDS011;45733;52.668;6.860;2024-02-21T11:39:24;11.55;;;10.85;;
59856;SDS011;45733;52.668;6.860;2024-02-21T11:42:03;12.35;;;11.65;;
59856;SDS011;45733;52.668;6.860;2024-02-21T11:44:31;11.52;;;10.82;;
59856;SDS011;45733;52.668;6.860;2024-02-21T11:46:57;11.20;;;10.52;;
59856;SDS011;45733;52.668;6.860;2024-02-21T11:49:30;11.32;;;10.63;;
59856;SDS011;45733;52.668;6.860;2024-02-21T11:51:59;11.05;;;10.38;;
59856;SDS011;45733;52.668;6.860;2024-02-21T11:54:26;11.18;;;10.48;;
59856;SDS011;45733;52.668;6.860;2024-02-21T11:56:52;11.10;;;10.43;;
59856;SDS011;45733;52.668;6.860;2024-02-21T11:59:18;11.45;;;10.75;;
59856;SDS011;45733;52.668;6.860;2024-02-21T12:01:44;10.32;;;9.73;;
59856;SDS011;45733;52.668;6.860;2024-02-21T12:04:10;10.25;;;9.65;;
59856;SDS011;45733;52.668;6.860;2024-02-21T12:06:36;10.30;;;9.70;;
59856;SDS011;45733;52.668;6.860;2024-02-21T12:09:01;10.15;;;9.55;;
59856;SDS011;45733;52.668;6.860;2024-02-21T12:11:27;9.95;;;9.35;;
59856;SDS011;45733;52.668;6.860;2024-02-21T12:14:02;9.73;;;9.13;;
59856;SDS011;45733;52.668;6.860;2024-02-21T12:16:30;10.02;;;9.43;;
59856;SDS011;45733;52.668;6.860;2024-02-21T12:18:59;10.18;;;9.57;;
59856;SDS011;45733;52.668;6.860;2024-02-21T12:21:26;10.32;;;9.73;;
59856;SDS011;45733;52.668;6.860;2024-02-21T12:23:55;10.88;;;10.25;;
59856;SDS011;45733;52.668;6.860;2024-02-21T12:26:21;9.75;;;9.15;;
59856;SDS011;45733;52.668;6.860;2024-02-21T12:28:47;10.77;;;10.15;;
59856;SDS011;45733;52.668;6.860;2024-02-21T12:31:13;9.75;;;9.15;;
59856;SDS011;45733;52.668;6.860;2024-02-21T12:33:39;10.63;;;10.02;;
59856;SDS011;45733;52.668;6.860;2024-02-21T12:36:05;10.15;;;9.55;;
59856;SDS011;45733;52.668;6.860;2024-02-21T12:38:31;10.02;;;9.43;;
59856;SDS011;45733;52.668;6.860;2024-02-21T12:40:56;10.02;;;9.43;;
59856;SDS011;45733;52.668;6.860;2024-02-21T12:43:23;11.07;;;10.40;;
59856;SDS011;45733;52.668;6.860;2024-02-21T12:45:48;11.23;;;10.52;;
59856;SDS011;45733;52.668;6.860;2024-02-21T12:48:14;10.60;;;10.00;;
59856;SDS011;45733;52.668;6.860;2024-02-21T12:50:42;10.85;;;10.23;;
59856;SDS011;45733;52.668;6.860;2024-02-21T12:53:15;10.77;;;10.15;;
59856;SDS011;45733;52.668;6.860;2024-02-21T12:55:41;11.95;;;11.25;;
59856;SDS011;45733;52.668;6.860;2024-02-21T12:58:06;12.73;;;12.02;;
59856;SDS011;45733;52.668;6.860;2024-02-21T13:00:32;12.88;;;12.15;;
59856;SDS011;45733;52.668;6.860;2024-02-21T13:03:00;13.07;;;12.32;;
59856;SDS011;45733;52.668;6.860;2024-02-21T13:05:26;12.45;;;11.75;;
59856;SDS011;45733;52.668;6.860;2024-02-21T13:07:55;13.35;;;12.60;;
59856;SDS011;45733;52.668;6.860;2024-02-21T13:10:21;12.88;;;12.15;;
59856;SDS011;45733;52.668;6.860;2024-02-21T13:12:47;13.88;;;13.07;;
59856;SDS011;45733;52.668;6.860;2024-02-21T13:15:12;13.10;;;12.35;;
59856;SDS011;45733;52.668;6.860;2024-02-21T13:17:38;13.85;;;13.07;;
59856;SDS011;45733;52.668;6.860;2024-02-21T13:20:04;13.93;;;13.15;;
59856;SDS011;45733;52.668;6.860;2024-02-21T13:22:30;13.30;;;12.55;;
59856;SDS011;45733;52.668;6.860;2024-02-21T13:24:56;13.50;;;12.75;;
59856;SDS011;45733;52.668;6.860;2024-02-21T13:27:22;13.35;;;12.60;;
59856;SDS011;45733;52.668;6.860;2024-02-21T13:29:48;13.00;;;12.25;;
59856;SDS011;45733;52.668;6.860;2024-02-21T13:32:13;12.43;;;11.73;;
59856;SDS011;45733;52.668;6.860;2024-02-21T13:34:40;12.65;;;11.95;;
59856;SDS011;45733;52.668;6.860;2024-02-21T13:37:07;12.18;;;11.48;;
59856;SDS011;45733;52.668;6.860;2024-02-21T13:39:35;12.65;;;11.95;;
59856;SDS011;45733;52.668;6.860;2024-02-21T13:42:01;12.35;;;11.65;;
59856;SDS011;45733;52.668;6.860;2024-02-21T13:44:27;11.85;;;11.15;;
59856;SDS011;45733;52.668;6.860;2024-02-21T13:46:53;11.25;;;10.55;;
59856;SDS011;45733;52.668;6.860;2024-02-21T13:49:22;10.07;;;9.48;;
59856;SDS011;45733;52.668;6.860;2024-02-21T13:51:48;10.00;;;9.40;;
59856;SDS011;45733;52.668;6.860;2024-02-21T13:54:13;9.55;;;8.95;;
59856;SDS011;45733;52.668;6.860;2024-02-21T13:56:45;10.18;;;9.57;;
59856;SDS011;45733;52.668;6.860;2024-02-21T13:59:13;8.90;;;8.35;;
59856;SDS011;45733;52.668;6.860;2024-02-21T14:01:41;9.45;;;8.85;;
59856;SDS011;45733;52.668;6.860;2024-02-21T14:04:08;8.52;;;8.02;;
59856;SDS011;45733;52.668;6.860;2024-02-21T14:06:33;8.15;;;7.65;;
59856;SDS011;45733;52.668;6.860;2024-02-21T14:08:59;7.85;;;7.35;;
59856;SDS011;45733;52.668;6.860;2024-02-21T14:11:25;7.50;;;7.03;;
59856;SDS011;45733;52.668;6.860;2024-02-21T14:13:52;8.15;;;7.65;;
59856;SDS011;45733;52.668;6.860;2024-02-21T14:16:18;7.65;;;7.18;;
59856;SDS011;45733;52.668;6.860;2024-02-21T14:18:43;7.80;;;7.30;;
59856;SDS011;45733;52.668;6.860;2024-02-21T14:21:09;7.93;;;7.43;;
59856;SDS011;45733;52.668;6.860;2024-02-21T14:23:39;7.15;;;6.75;;
59856;SDS011;45733;52.668;6.860;2024-02-21T14:26:05;7.20;;;6.80;;
59856;SDS011;45733;52.668;6.860;2024-02-21T14:28:31;7.20;;;6.80;;
59856;SDS011;45733;52.668;6.860;2024-02-21T14:30:59;7.35;;;6.90;;
59856;SDS011;45733;52.668;6.860;2024-02-21T14:33:25;8.13;;;7.63;;
59856;SDS011;45733;52.668;6.860;2024-02-21T14:35:52;7.65;;;7.15;;